sensor_id;sensor_type;location;lat;lon;timestamp;P1;durP1;ratioP1;P2;durP2;ratioP2
9364;SDS011;4722;49.340;9.800;2024-01-10T00:02:25;6.70;;;4.20;;
9364;SDS011;4722;49.340;9.800;2024-01-10T00:04:51;14.90;;;7.00;;
9364;SDS011;4722;49.340;9.800;2024-01-10T00:07:17;10.57;;;5.70;;
9364;SDS011;4722;49.340;9.800;2024-01-10T00:09:43;7.00;;;4.30;;
9364;SDS011;4722;49.340;9.800;2024-01-10T00:12:10;7.13;;;4.28;;
9364;SDS011;4722;49.340;9.800;2024-01-10T00:14:36;13.82;;;4.57;;
9364;SDS011;4722;49.340;9.800;2024-01-10T00:17:02;11.80;;;3.92;;
9364;SDS011;4722;49.340;9.800;2024-01-10T00:19:28;11.77;;;5.28;;
9364;SDS011;4722;49.340;9.800;2024-01-10T00:21:54;11.48;;;5.97;;
9364;SDS011;4722;49.340;9.800;2024-01-10T00:24:21;12.23;;;6.10;;
9364;SDS011;4722;49.340;9.800;2024-01-10T00:26:47;10.90;;;4.88;;
9364;SDS011;4722;49.340;9.800;2024-01-10T00:29:13;14.27;;;6.70;;
9364;SDS011;4722;49.340;9.800;2024-01-10T00:31:39;16.38;;;7.68;;
9364;SDS011;4722;49.340;9.800;2024-01-10T00:34:05;9.98;;;5.20;;
9364;SDS011;4722;49.340;9.800;2024-01-10T00:36:31;15.85;;;7.47;;
9364;SDS011;4722;49.340;9.800;2024-01-10T00:38:57;20.88;;;9.10;;
9364;SDS011;4722;49.340;9.800;2024-01-10T00:41:23;15.45;;;7.10;;
9364;SDS011;4722;49.340;9.800;2024-01-10T00:43:49;12.25;;;6.30;;
9364;SDS011;4722;49.340;9.800;2024-01-10T00:46:15;18.77;;;6.25;;
9364;SDS011;4722;49.340;9.800;2024-01-10T00:48:41;14.02;;;6.20;;
9364;SDS011;4722;49.340;9.800;2024-01-10T00:51:07;10.38;;;5.93;;
9364;SDS011;4722;49.340;9.800;2024-01-10T00:53:34;11.48;;;5.30;;
9364;SDS011;4722;49.340;9.800;2024-01-10T00:56:04;12.88;;;6.38;;
9364;SDS011;4722;49.340;9.800;2024-01-10T00:58:30;11.73;;;5.72;;
9364;SDS011;4722;49.340;9.800;2024-01-10T01:00:56;6.93;;;4.35;;
9364;SDS011;4722;49.340;9.800;2024-01-10T01:03:22;10.40;;;6.15;;
9364;SDS011;4722;49.340;9.800;2024-01-10T01:05:48;9.68;;;4.72;;
9364;SDS011;4722;49.340;9.800;2024-01-10T01:08:14;7.20;;;4.68;;
9364;SDS011;4722;49.340;9.800;2024-01-10T01:10:39;7.72;;;5.20;;
9364;SDS011;4722;49.340;9.800;2024-01-10T01:13:05;14.15;;;6.57;;
9364;SDS011;4722;49.340;9.800;2024-01-10T01:15:32;5.05;;;4.00;;
9364;SDS011;4722;49.340;9.800;2024-01-10T01:17:58;12.73;;;6.00;;
9364;SDS011;4722;49.340;9.800;2024-01-10T01:20:24;9.13;;;4.75;;
9364;SDS011;4722;49.340;9.800;2024-01-10T01:22:49;14.00;;;7.20;;
9364;SDS011;4722;49.340;9.800;2024-01-10T01:25:16;15.20;;;8.10;;
9364;SDS011;4722;49.340;9.800;2024-01-10T01:27:41;14.85;;;5.47;;
9364;SDS011;4722;49.340;9.800;2024-01-10T01:30:07;9.20;;;4.32;;
9364;SDS011;4722;49.340;9.800;2024-01-10T01:32:36;8.02;;;4.32;;
9364;SDS011;4722;49.340;9.800;2024-01-10T01:35:03;8.73;;;4.55;;
9364;SDS011;4722;49.340;9.800;2024-01-10T01:37:29;7.93;;;5.00;;
9364;SDS011;4722;49.340;9.800;2024-01-10T01:39:55;9.93;;;4.90;;
9364;SDS011;4722;49.340;9.800;2024-01-10T01:42:20;7.55;;;4.60;;
9364;SDS011;4722;49.340;9.800;2024-01-10T01:44:46;9.07;;;3.58;;
9364;SDS011;4722;49.340;9.800;2024-01-10T01:47:12;8.18;;;5.10;;
9364;SDS011;4722;49.340;9.800;2024-01-10T01:49:38;13.02;;;5.45;;
9364;SDS011;4722;49.340;9.800;2024-01-10T01:52:04;9.07;;;4.22;;
9364;SDS011;4722;49.340;9.800;2024-01-10T01:54:32;8.90;;;4.13;;
9364;SDS011;4722;49.340;9.800;2024-01-10T01:56:58;7.70;;;4.75;;
9364;SDS011;4722;49.340;9.800;2024-01-10T01:59:25;12.55;;;4.80;;
9364;SDS011;4722;49.340;9.800;2024-01-10T02:01:52;15.73;;;4.90;;
9364;SDS011;4722;49.340;9.800;2024-01-10T02:04:20;6.72;;;3.55;;
9364;SDS011;4722;49.340;9.800;2024-01-10T02:06:46;12.20;;;5.68;;
9364;SDS011;4722;49.340;9.800;2024-01-10T02:09:12;13.30;;;4.70;;
9364;SDS011;4722;49.340;9.800;2024-01-10T02:11:38;9.43;;;5.05;;
9364;SDS011;4722;49.340;9.800;2024-01-10T02:14:04;7.05;;;3.75;;
9364;SDS011;4722;49.340;9.800;2024-01-10T02:16:31;6.97;;;3.58;;
9364;SDS011;4722;49.340;9.800;2024-01-10T02:18:57;7.47;;;4.32;;
9364;SDS011;4722;49.340;9.800;2024-01-10T02:21:23;14.55;;;5.32;;
9364;SDS011;4722;49.340;9.800;2024-01-10T02:23:49;13.68;;;6.57;;
9364;SDS011;4722;49.340;9.800;2024-01-10T02:26:15;5.78;;;3.42;;
9364;SDS011;4722;49.340;9.800;2024-01-10T02:28:41;10.82;;;5.20;;
9364;SDS011;4722;49.340;9.800;2024-01-10T02:31:07;7.57;;;5.38;;
9364;SDS011;4722;49.340;9.800;2024-01-10T02:33:33;8.90;;;6.40;;
9364;SDS011;4722;49.340;9.800;2024-01-10T02:35:59;10.20;;;3.95;;
9364;SDS011;4722;49.340;9.800;2024-01-10T02:38:25;12.27;;;5.70;;
9364;SDS011;4722;49.340;9.800;2024-01-10T02:40:52;17.35;;;5.95;;
9364;SDS011;4722;49.340;9.800;2024-01-10T02:43:18;20.35;;;7.18;;
9364;SDS011;4722;49.340;9.800;2024-01-10T02:45:44;9.00;;;6.93;;
9364;SDS011;4722;49.340;9.800;2024-01-10T02:48:10;14.15;;;5.20;;
9364;SDS011;4722;49.340;9.800;2024-01-10T02:50:36;15.38;;;7.82;;
9364;SDS011;4722;49.340;9.800;2024-01-10T02:53:03;17.67;;;7.18;;
9364;SDS011;4722;49.340;9.800;2024-01-10T02:55:30;16.52;;;6.20;;
9364;SDS011;4722;49.340;9.800;2024-01-10T02:57:56;30.55;;;7.88;;
9364;SDS011;4722;49.340;9.800;2024-01-10T03:00:22;17.25;;;8.27;;
9364;SDS011;4722;49.340;9.800;2024-01-10T03:02:48;6.95;;;4.22;;
9364;SDS011;4722;49.340;9.800;2024-01-10T03:05:14;7.82;;;5.03;;
9364;SDS011;4722;49.340;9.800;2024-01-10T03:07:40;12.07;;;4.90;;
9364;SDS011;4722;49.340;9.800;2024-01-10T03:10:06;5.28;;;3.45;;
9364;SDS011;4722;49.340;9.800;2024-01-10T03:12:35;8.32;;;3.72;;
9364;SDS011;4722;49.340;9.800;2024-01-10T03:15:03;14.20;;;6.63;;
9364;SDS011;4722;49.340;9.800;2024-01-10T03:17:29;8.95;;;3.97;;
9364;SDS011;4722;49.340;9.800;2024-01-10T03:19:58;10.52;;;5.45;;
9364;SDS011;4722;49.340;9.800;2024-01-10T03:22:24;7.40;;;4.20;;
9364;SDS011;4722;49.340;9.800;2024-01-10T03:24:50;14.02;;;4.75;;
9364;SDS011;4722;49.340;9.800;2024-01-10T03:27:16;12.88;;;3.20;;
9364;SDS011;4722;49.340;9.800;2024-01-10T03:29:42;4.78;;;3.17;;
9364;SDS011;4722;49.340;9.800;2024-01-10T03:32:11;9.13;;;4.55;;
9364;SDS011;4722;49.340;9.800;2024-01-10T03:34:41;8.70;;;3.77;;
9364;SDS011;4722;49.340;9.800;2024-01-10T03:37:07;9.95;;;4.88;;
9364;SDS011;4722;49.340;9.800;2024-01-10T03:39:33;7.30;;;3.85;;
9364;SDS011;4722;49.340;9.800;2024-01-10T03:41:59;8.32;;;3.60;;
9364;SDS011;4722;49.340;9.800;2024-01-10T03:44:26;8.70;;;4.55;;
9364;SDS011;4722;49.340;9.800;2024-01-10T03:46:52;8.23;;;4.93;;
9364;SDS011;4722;49.340;9.800;2024-01-10T03:49:18;8.00;;;4.85;;
9364;SDS011;4722;49.340;9.800;2024-01-10T03:51:44;10.57;;;5.30;;
9364;SDS011;4722;49.340;9.800;2024-01-10T03:54:10;18.77;;;4.47;;
9364;SDS011;4722;49.340;9.800;2024-01-10T03:56:36;9.90;;;4.57;;
9364;SDS011;4722;49.340;9.800;2024-01-10T03:59:02;16.30;;;6.18;;
9364;SDS011;4722;49.340;9.800;2024-01-10T04:01:28;14.63;;;5.20;;
9364;SDS011;4722;49.340;9.800;2024-01-10T04:03:54;8.07;;;3.90;;
9364;SDS011;4722;49.340;9.800;2024-01-10T04:06:20;17.63;;;4.60;;
9364;SDS011;4722;49.340;9.800;2024-01-10T04:08:46;12.85;;;4.30;;
9364;SDS011;4722;49.340;9.800;2024-01-10T04:11:12;13.77;;;5.05;;
9364;SDS011;4722;49.340;9.800;2024-01-10T04:13:39;12.40;;;4.55;;
9364;SDS011;4722;49.340;9.800;2024-01-10T04:16:06;5.93;;;3.85;;
9364;SDS011;4722;49.340;9.800;2024-01-10T04:18:32;10.32;;;4.47;;
9364;SDS011;4722;49.340;9.800;2024-01-10T04:20:58;12.25;;;6.03;;
9364;SDS011;4722;49.340;9.800;2024-01-10T04:23:24;11.65;;;4.50;;
9364;SDS011;4722;49.340;9.800;2024-01-10T04:25:50;12.00;;;5.95;;
9364;SDS011;4722;49.340;9.800;2024-01-10T04:28:16;15.57;;;6.93;;
9364;SDS011;4722;49.340;9.800;2024-01-10T04:30:42;11.35;;;4.97;;
9364;SDS011;4722;49.340;9.800;2024-01-10T04:33:08;8.00;;;3.78;;
9364;SDS011;4722;49.340;9.800;2024-01-10T04:35:34;10.23;;;5.45;;
9364;SDS011;4722;49.340;9.800;2024-01-10T04:38:00;8.32;;;3.88;;
9364;SDS011;4722;49.340;9.800;2024-01-10T04:40:26;13.27;;;5.97;;
9364;SDS011;4722;49.340;9.800;2024-01-10T04:42:52;10.50;;;4.00;;
9364;SDS011;4722;49.340;9.800;2024-01-10T04:45:18;15.60;;;4.45;;
9364;SDS011;4722;49.340;9.800;2024-01-10T04:47:44;10.00;;;5.65;;
9364;SDS011;4722;49.340;9.800;2024-01-10T04:50:10;17.13;;;6.43;;
9364;SDS011;4722;49.340;9.800;2024-01-10T04:52:36;5.25;;;3.95;;
9364;SDS011;4722;49.340;9.800;2024-01-10T04:55:02;14.63;;;6.47;;
9364;SDS011;4722;49.340;9.800;2024-01-10T04:57:30;10.68;;;4.65;;
9364;SDS011;4722;49.340;9.800;2024-01-10T04:59:56;7.40;;;4.10;;
9364;SDS011;4722;49.340;9.800;2024-01-10T05:02:23;7.60;;;3.75;;
9364;SDS011;4722;49.340;9.800;2024-01-10T05:04:49;9.20;;;5.13;;
9364;SDS011;4722;49.340;9.800;2024-01-10T05:07:15;7.93;;;4.78;;
9364;SDS011;4722;49.340;9.800;2024-01-10T05:09:41;13.25;;;4.97;;
9364;SDS011;4722;49.340;9.800;2024-01-10T05:12:07;13.00;;;4.93;;
9364;SDS011;4722;49.340;9.800;2024-01-10T05:14:33;12.25;;;4.70;;
9364;SDS011;4722;49.340;9.800;2024-01-10T05:16:59;11.50;;;5.15;;
9364;SDS011;4722;49.340;9.800;2024-01-10T05:19:25;13.00;;;5.88;;
9364;SDS011;4722;49.340;9.800;2024-01-10T05:21:51;5.07;;;3.78;;
9364;SDS011;4722;49.340;9.800;2024-01-10T05:24:17;12.35;;;4.22;;
9364;SDS011;4722;49.340;9.800;2024-01-10T05:26:44;9.93;;;5.10;;
9364;SDS011;4722;49.340;9.800;2024-01-10T05:29:10;10.02;;;4.20;;
9364;SDS011;4722;49.340;9.800;2024-01-10T05:31:36;7.18;;;4.60;;
9364;SDS011;4722;49.340;9.800;2024-01-10T05:34:02;12.43;;;5.45;;
9364;SDS011;4722;49.340;9.800;2024-01-10T05:36:30;5.55;;;3.80;;
9364;SDS011;4722;49.340;9.800;2024-01-10T05:38:56;8.38;;;3.00;;
9364;SDS011;4722;49.340;9.800;2024-01-10T05:41:22;9.82;;;4.85;;
9364;SDS011;4722;49.340;9.800;2024-01-10T05:43:49;14.13;;;5.28;;
9364;SDS011;4722;49.340;9.800;2024-01-10T05:46:15;9.65;;;6.25;;
9364;SDS011;4722;49.340;9.800;2024-01-10T05:48:41;15.57;;;7.30;;
9364;SDS011;4722;49.340;9.800;2024-01-10T05:51:07;12.73;;;5.75;;
9364;SDS011;4722;49.340;9.800;2024-01-10T05:53:33;15.43;;;7.40;;
9364;SDS011;4722;49.340;9.800;2024-01-10T05:55:59;17.92;;;8.45;;
9364;SDS011;4722;49.340;9.800;2024-01-10T05:58:25;23.58;;;10.02;;
9364;SDS011;4722;49.340;9.800;2024-01-10T06:00:51;9.57;;;6.18;;
9364;SDS011;4722;49.340;9.800;2024-01-10T06:03:18;11.95;;;5.68;;
9364;SDS011;4722;49.340;9.800;2024-01-10T06:05:46;21.02;;;6.20;;
9364;SDS011;4722;49.340;9.800;2024-01-10T06:08:12;13.60;;;5.50;;
9364;SDS011;4722;49.340;9.800;2024-01-10T06:10:39;13.73;;;6.93;;
9364;SDS011;4722;49.340;9.800;2024-01-10T06:13:05;11.52;;;6.25;;
9364;SDS011;4722;49.340;9.800;2024-01-10T06:15:31;10.48;;;5.57;;
9364;SDS011;4722;49.340;9.800;2024-01-10T06:17:56;8.98;;;5.68;;
9364;SDS011;4722;49.340;9.800;2024-01-10T06:20:23;6.43;;;3.80;;
9364;SDS011;4722;49.340;9.800;2024-01-10T06:22:49;7.80;;;3.53;;
9364;SDS011;4722;49.340;9.800;2024-01-10T06:25:15;14.15;;;5.82;;
9364;SDS011;4722;49.340;9.800;2024-01-10T06:27:41;7.40;;;3.70;;
9364;SDS011;4722;49.340;9.800;2024-01-10T06:30:07;11.02;;;6.03;;
9364;SDS011;4722;49.340;9.800;2024-01-10T06:32:34;12.55;;;6.03;;
9364;SDS011;4722;49.340;9.800;2024-01-10T06:35:00;8.82;;;5.68;;
9364;SDS011;4722;49.340;9.800;2024-01-10T06:37:27;8.10;;;5.97;;
9364;SDS011;4722;49.340;9.800;2024-01-10T06:39:53;6.25;;;3.42;;
9364;SDS011;4722;49.340;9.800;2024-01-10T06:42:19;10.82;;;5.32;;
9364;SDS011;4722;49.340;9.800;2024-01-10T06:44:45;12.10;;;6.13;;
9364;SDS011;4722;49.340;9.800;2024-01-10T06:47:11;10.95;;;5.68;;
9364;SDS011;4722;49.340;9.800;2024-01-10T06:49:37;8.77;;;4.40;;
9364;SDS011;4722;49.340;9.800;2024-01-10T06:52:03;10.90;;;5.80;;
9364;SDS011;4722;49.340;9.800;2024-01-10T06:54:32;11.13;;;5.78;;
9364;SDS011;4722;49.340;9.800;2024-01-10T06:56:59;9.80;;;5.10;;
9364;SDS011;4722;49.340;9.800;2024-01-10T06:59:28;25.27;;;5.22;;
9364;SDS011;4722;49.340;9.800;2024-01-10T07:01:54;9.30;;;5.60;;
9364;SDS011;4722;49.340;9.800;2024-01-10T07:04:24;9.88;;;4.70;;
9364;SDS011;4722;49.340;9.800;2024-01-10T07:06:52;21.13;;;5.85;;
9364;SDS011;4722;49.340;9.800;2024-01-10T07:09:18;10.68;;;5.03;;
9364;SDS011;4722;49.340;9.800;2024-01-10T07:11:48;6.85;;;3.95;;
9364;SDS011;4722;49.340;9.800;2024-01-10T07:14:14;12.85;;;5.07;;
9364;SDS011;4722;49.340;9.800;2024-01-10T07:16:44;7.75;;;4.00;;
9364;SDS011;4722;49.340;9.800;2024-01-10T07:19:11;5.63;;;3.67;;
9364;SDS011;4722;49.340;9.800;2024-01-10T07:21:40;11.02;;;4.95;;
9364;SDS011;4722;49.340;9.800;2024-01-10T07:24:07;6.65;;;3.88;;
9364;SDS011;4722;49.340;9.800;2024-01-10T07:26:36;7.05;;;4.78;;
9364;SDS011;4722;49.340;9.800;2024-01-10T07:29:05;16.55;;;4.43;;
9364;SDS011;4722;49.340;9.800;2024-01-10T07:31:33;10.52;;;4.45;;
9364;SDS011;4722;49.340;9.800;2024-01-10T07:33:59;15.00;;;5.63;;
9364;SDS011;4722;49.340;9.800;2024-01-10T07:36:25;15.10;;;6.32;;
9364;SDS011;4722;49.340;9.800;2024-01-10T07:38:58;9.02;;;4.65;;
9364;SDS011;4722;49.340;9.800;2024-01-10T07:41:24;8.38;;;4.38;;
9364;SDS011;4722;49.340;9.800;2024-01-10T07:43:50;13.68;;;6.10;;
9364;SDS011;4722;49.340;9.800;2024-01-10T07:46:17;9.52;;;4.68;;
9364;SDS011;4722;49.340;9.800;2024-01-10T07:48:44;9.27;;;5.65;;
9364;SDS011;4722;49.340;9.800;2024-01-10T07:51:10;6.93;;;3.97;;
9364;SDS011;4722;49.340;9.800;2024-01-10T07:53:37;9.13;;;4.05;;
9364;SDS011;4722;49.340;9.800;2024-01-10T07:56:03;15.93;;;5.13;;
9364;SDS011;4722;49.340;9.800;2024-01-10T07:58:29;7.55;;;4.60;;
9364;SDS011;4722;49.340;9.800;2024-01-10T08:00:55;10.88;;;4.85;;
9364;SDS011;4722;49.340;9.800;2024-01-10T08:03:24;13.70;;;5.38;;
9364;SDS011;4722;49.340;9.800;2024-01-10T08:05:51;11.32;;;5.05;;
9364;SDS011;4722;49.340;9.800;2024-01-10T08:08:17;8.70;;;4.20;;
9364;SDS011;4722;49.340;9.800;2024-01-10T08:10:43;8.75;;;4.15;;
9364;SDS011;4722;49.340;9.800;2024-01-10T08:13:10;12.70;;;4.65;;
9364;SDS011;4722;49.340;9.800;2024-01-10T08:15:36;9.75;;;4.80;;
9364;SDS011;4722;49.340;9.800;2024-01-10T08:18:02;9.32;;;3.35;;
9364;SDS011;4722;49.340;9.800;2024-01-10T08:20:28;9.20;;;5.03;;
9364;SDS011;4722;49.340;9.800;2024-01-10T08:22:54;8.75;;;4.97;;
9364;SDS011;4722;49.340;9.800;2024-01-10T08:25:20;15.43;;;7.75;;
9364;SDS011;4722;49.340;9.800;2024-01-10T08:27:47;11.77;;;5.78;;
9364;SDS011;4722;49.340;9.800;2024-01-10T08:30:14;10.43;;;5.30;;
9364;SDS011;4722;49.340;9.800;2024-01-10T08:32:40;8.15;;;5.00;;
9364;SDS011;4722;49.340;9.800;2024-01-10T08:35:06;11.73;;;4.70;;
9364;SDS011;4722;49.340;9.800;2024-01-10T08:37:33;11.18;;;4.10;;
9364;SDS011;4722;49.340;9.800;2024-01-10T08:40:00;12.57;;;5.88;;
9364;SDS011;4722;49.340;9.800;2024-01-10T08:42:31;10.52;;;6.63;;
9364;SDS011;4722;49.340;9.800;2024-01-10T08:44:59;10.02;;;5.07;;
9364;SDS011;4722;49.340;9.800;2024-01-10T08:47:25;11.48;;;5.15;;
9364;SDS011;4722;49.340;9.800;2024-01-10T08:49:52;9.55;;;5.55;;
9364;SDS011;4722;49.340;9.800;2024-01-10T08:52:18;13.18;;;7.00;;
9364;SDS011;4722;49.340;9.800;2024-01-10T08:54:43;14.52;;;5.65;;
9364;SDS011;4722;49.340;9.800;2024-01-10T08:57:10;16.92;;;6.80;;
9364;SDS011;4722;49.340;9.800;2024-01-10T08:59:36;13.93;;;6.50;;
9364;SDS011;4722;49.340;9.800;2024-01-10T09:02:02;11.07;;;5.50;;
9364;SDS011;4722;49.340;9.800;2024-01-10T09:04:28;12.43;;;6.63;;
9364;SDS011;4722;49.340;9.800;2024-01-10T09:06:54;13.18;;;7.57;;
9364;SDS011;4722;49.340;9.800;2024-01-10T09:09:20;21.13;;;7.18;;
9364;SDS011;4722;49.340;9.800;2024-01-10T09:11:46;15.38;;;5.35;;
9364;SDS011;4722;49.340;9.800;2024-01-10T09:14:15;12.82;;;5.57;;
9364;SDS011;4722;49.340;9.800;2024-01-10T09:16:42;20.85;;;7.85;;
9364;SDS011;4722;49.340;9.800;2024-01-10T09:19:09;21.25;;;8.15;;
9364;SDS011;4722;49.340;9.800;2024-01-10T09:21:35;12.02;;;6.07;;
9364;SDS011;4722;49.340;9.800;2024-01-10T09:24:02;23.90;;;6.40;;
9364;SDS011;4722;49.340;9.800;2024-01-10T09:26:33;17.77;;;7.05;;
9364;SDS011;4722;49.340;9.800;2024-01-10T09:28:59;11.32;;;6.32;;
9364;SDS011;4722;49.340;9.800;2024-01-10T09:31:25;17.17;;;7.80;;
9364;SDS011;4722;49.340;9.800;2024-01-10T09:36:19;32.72;;;13.48;;
9364;SDS011;4722;49.340;9.800;2024-01-10T09:38:45;19.67;;;7.63;;
9364;SDS011;4722;49.340;9.800;2024-01-10T09:41:11;18.05;;;5.65;;
9364;SDS011;4722;49.340;9.800;2024-01-10T09:43:38;14.20;;;5.65;;
9364;SDS011;4722;49.340;9.800;2024-01-10T09:46:04;16.27;;;6.32;;
9364;SDS011;4722;49.340;9.800;2024-01-10T09:48:32;13.80;;;6.25;;
9364;SDS011;4722;49.340;9.800;2024-01-10T09:50:58;17.08;;;6.57;;
9364;SDS011;4722;49.340;9.800;2024-01-10T09:53:25;9.52;;;5.53;;
9364;SDS011;4722;49.340;9.800;2024-01-10T09:55:57;13.40;;;6.65;;
9364;SDS011;4722;49.340;9.800;2024-01-10T09:58:25;16.23;;;7.50;;
9364;SDS011;4722;49.340;9.800;2024-01-10T10:00:51;18.02;;;6.72;;
9364;SDS011;4722;49.340;9.800;2024-01-10T10:03:17;20.27;;;6.50;;
9364;SDS011;4722;49.340;9.800;2024-01-10T10:05:44;14.88;;;8.63;;
9364;SDS011;4722;49.340;9.800;2024-01-10T10:08:11;16.08;;;5.97;;
9364;SDS011;4722;49.340;9.800;2024-01-10T10:10:38;18.63;;;8.38;;
9364;SDS011;4722;49.340;9.800;2024-01-10T10:13:11;10.85;;;5.95;;
9364;SDS011;4722;49.340;9.800;2024-01-10T10:15:57;21.70;;;8.25;;
9364;SDS011;4722;49.340;9.800;2024-01-10T10:18:23;15.60;;;6.68;;
9364;SDS011;4722;49.340;9.800;2024-01-10T10:20:49;21.77;;;7.50;;
9364;SDS011;4722;49.340;9.800;2024-01-10T10:23:31;19.98;;;7.53;;
9364;SDS011;4722;49.340;9.800;2024-01-10T10:25:58;15.82;;;6.90;;
9364;SDS011;4722;49.340;9.800;2024-01-10T10:28:28;15.20;;;8.32;;
9364;SDS011;4722;49.340;9.800;2024-01-10T10:30:56;16.75;;;6.72;;
9364;SDS011;4722;49.340;9.800;2024-01-10T10:33:22;18.70;;;7.45;;
9364;SDS011;4722;49.340;9.800;2024-01-10T10:35:49;14.35;;;6.53;;
9364;SDS011;4722;49.340;9.800;2024-01-10T10:38:15;14.18;;;6.47;;
9364;SDS011;4722;49.340;9.800;2024-01-10T10:40:41;18.10;;;7.80;;
9364;SDS011;4722;49.340;9.800;2024-01-10T10:43:09;18.95;;;6.65;;
9364;SDS011;4722;49.340;9.800;2024-01-10T10:45:47;16.50;;;6.38;;
9364;SDS011;4722;49.340;9.800;2024-01-10T10:48:16;15.95;;;7.07;;
9364;SDS011;4722;49.340;9.800;2024-01-10T10:50:42;23.63;;;9.20;;
9364;SDS011;4722;49.340;9.800;2024-01-10T10:53:13;16.80;;;7.43;;
9364;SDS011;4722;49.340;9.800;2024-01-10T10:55:39;20.80;;;7.85;;
9364;SDS011;4722;49.340;9.800;2024-01-10T10:58:06;15.63;;;6.50;;
9364;SDS011;4722;49.340;9.800;2024-01-10T11:00:33;20.80;;;7.07;;
9364;SDS011;4722;49.340;9.800;2024-01-10T11:03:00;15.63;;;6.38;;
9364;SDS011;4722;49.340;9.800;2024-01-10T11:05:28;15.30;;;7.35;;
9364;SDS011;4722;49.340;9.800;2024-01-10T11:07:54;17.30;;;7.25;;
9364;SDS011;4722;49.340;9.800;2024-01-10T11:10:23;23.25;;;7.93;;
9364;SDS011;4722;49.340;9.800;2024-01-10T11:20:31;17.70;;;6.07;;
9364;SDS011;4722;49.340;9.800;2024-01-10T11:25:26;21.13;;;6.97;;
9364;SDS011;4722;49.340;9.800;2024-01-10T11:27:55;24.70;;;8.32;;
9364;SDS011;4722;49.340;9.800;2024-01-10T11:38:29;15.32;;;7.95;;
9364;SDS011;4722;49.340;9.800;2024-01-10T11:40:56;19.25;;;8.85;;
9364;SDS011;4722;49.340;9.800;2024-01-10T11:43:22;16.20;;;8.00;;
9364;SDS011;4722;49.340;9.800;2024-01-10T11:45:51;21.00;;;9.93;;
9364;SDS011;4722;49.340;9.800;2024-01-10T11:48:27;20.30;;;8.90;;
9364;SDS011;4722;49.340;9.800;2024-01-10T11:50:54;29.08;;;10.40;;
9364;SDS011;4722;49.340;9.800;2024-01-10T11:53:39;18.52;;;7.55;;
9364;SDS011;4722;49.340;9.800;2024-01-10T11:56:08;23.92;;;10.13;;
9364;SDS011;4722;49.340;9.800;2024-01-10T11:58:51;21.20;;;9.48;;
9364;SDS011;4722;49.340;9.800;2024-01-10T12:01:18;21.85;;;8.57;;
9364;SDS011;4722;49.340;9.800;2024-01-10T12:03:44;23.30;;;8.70;;
9364;SDS011;4722;49.340;9.800;2024-01-10T12:06:11;17.48;;;9.30;;
9364;SDS011;4722;49.340;9.800;2024-01-10T12:08:37;16.90;;;8.20;;
9364;SDS011;4722;49.340;9.800;2024-01-10T12:11:03;24.38;;;8.85;;
9364;SDS011;4722;49.340;9.800;2024-01-10T12:13:29;21.42;;;7.60;;
9364;SDS011;4722;49.340;9.800;2024-01-10T12:15:57;26.35;;;10.25;;
9364;SDS011;4722;49.340;9.800;2024-01-10T12:18:23;29.75;;;11.75;;
9364;SDS011;4722;49.340;9.800;2024-01-10T12:20:49;19.20;;;9.52;;
9364;SDS011;4722;49.340;9.800;2024-01-10T12:23:15;23.38;;;10.73;;
9364;SDS011;4722;49.340;9.800;2024-01-10T12:25:42;31.08;;;12.05;;
9364;SDS011;4722;49.340;9.800;2024-01-10T12:28:08;24.05;;;10.48;;
9364;SDS011;4722;49.340;9.800;2024-01-10T12:30:33;21.95;;;9.70;;
9364;SDS011;4722;49.340;9.800;2024-01-10T12:33:00;25.90;;;12.18;;
9364;SDS011;4722;49.340;9.800;2024-01-10T12:35:27;25.80;;;11.30;;
9364;SDS011;4722;49.340;9.800;2024-01-10T12:37:56;30.00;;;12.82;;
9364;SDS011;4722;49.340;9.800;2024-01-10T12:40:22;21.50;;;11.23;;
9364;SDS011;4722;49.340;9.800;2024-01-10T12:42:48;19.60;;;10.55;;
9364;SDS011;4722;49.340;9.800;2024-01-10T12:45:23;26.02;;;11.48;;
9364;SDS011;4722;49.340;9.800;2024-01-10T12:47:52;26.25;;;12.25;;
9364;SDS011;4722;49.340;9.800;2024-01-10T12:50:19;27.40;;;10.02;;
9364;SDS011;4722;49.340;9.800;2024-01-10T12:52:45;20.20;;;11.35;;
9364;SDS011;4722;49.340;9.800;2024-01-10T12:55:13;23.40;;;11.32;;
9364;SDS011;4722;49.340;9.800;2024-01-10T12:57:39;23.30;;;9.10;;
9364;SDS011;4722;49.340;9.800;2024-01-10T13:00:05;31.65;;;10.85;;
9364;SDS011;4722;49.340;9.800;2024-01-10T13:02:33;31.13;;;11.40;;
9364;SDS011;4722;49.340;9.800;2024-01-10T13:05:02;32.80;;;11.55;;
9364;SDS011;4722;49.340;9.800;2024-01-10T13:07:28;28.48;;;12.88;;
9364;SDS011;4722;49.340;9.800;2024-01-10T13:09:56;21.70;;;10.68;;
9364;SDS011;4722;49.340;9.800;2024-01-10T13:12:22;23.88;;;8.95;;
9364;SDS011;4722;49.340;9.800;2024-01-10T13:14:48;23.95;;;10.25;;
9364;SDS011;4722;49.340;9.800;2024-01-10T13:17:14;21.02;;;11.15;;
9364;SDS011;4722;49.340;9.800;2024-01-10T13:19:41;29.88;;;12.73;;
9364;SDS011;4722;49.340;9.800;2024-01-10T13:22:10;27.55;;;11.05;;
9364;SDS011;4722;49.340;9.800;2024-01-10T13:24:38;32.60;;;12.35;;
9364;SDS011;4722;49.340;9.800;2024-01-10T13:27:04;34.22;;;12.57;;
9364;SDS011;4722;49.340;9.800;2024-01-10T13:29:31;29.38;;;10.70;;
9364;SDS011;4722;49.340;9.800;2024-01-10T13:31:57;31.90;;;11.75;;
9364;SDS011;4722;49.340;9.800;2024-01-10T13:34:23;23.92;;;11.52;;
9364;SDS011;4722;49.340;9.800;2024-01-10T13:36:49;22.83;;;11.77;;
9364;SDS011;4722;49.340;9.800;2024-01-10T13:39:15;67.53;;;26.48;;
9364;SDS011;4722;49.340;9.800;2024-01-10T13:41:41;61.63;;;24.77;;
9364;SDS011;4722;49.340;9.800;2024-01-10T13:44:07;86.50;;;34.03;;
9364;SDS011;4722;49.340;9.800;2024-01-10T13:46:34;46.10;;;19.90;;
9364;SDS011;4722;49.340;9.800;2024-01-10T13:49:00;34.50;;;14.55;;
9364;SDS011;4722;49.340;9.800;2024-01-10T13:51:26;31.15;;;16.17;;
9364;SDS011;4722;49.340;9.800;2024-01-10T13:53:52;26.88;;;12.57;;
9364;SDS011;4722;49.340;9.800;2024-01-10T13:56:18;22.98;;;9.88;;
9364;SDS011;4722;49.340;9.800;2024-01-10T13:58:47;22.17;;;9.95;;
9364;SDS011;4722;49.340;9.800;2024-01-10T14:01:13;20.40;;;8.77;;
9364;SDS011;4722;49.340;9.800;2024-01-10T14:03:39;35.72;;;13.05;;
9364;SDS011;4722;49.340;9.800;2024-01-10T14:06:05;19.55;;;10.10;;
9364;SDS011;4722;49.340;9.800;2024-01-10T14:08:31;36.80;;;13.02;;
9364;SDS011;4722;49.340;9.800;2024-01-10T14:10:59;22.58;;;11.43;;
9364;SDS011;4722;49.340;9.800;2024-01-10T14:13:25;29.33;;;11.35;;
9364;SDS011;4722;49.340;9.800;2024-01-10T14:15:51;21.60;;;9.98;;
9364;SDS011;4722;49.340;9.800;2024-01-10T14:18:17;40.13;;;12.45;;
9364;SDS011;4722;49.340;9.800;2024-01-10T14:20:43;26.27;;;11.90;;
9364;SDS011;4722;49.340;9.800;2024-01-10T14:23:09;24.10;;;10.45;;
9364;SDS011;4722;49.340;9.800;2024-01-10T14:25:35;21.48;;;10.68;;
9364;SDS011;4722;49.340;9.800;2024-01-10T14:28:01;25.17;;;11.27;;
9364;SDS011;4722;49.340;9.800;2024-01-10T14:30:28;26.67;;;11.23;;
9364;SDS011;4722;49.340;9.800;2024-01-10T14:32:54;25.75;;;10.80;;
9364;SDS011;4722;49.340;9.800;2024-01-10T14:35:20;24.33;;;11.75;;
9364;SDS011;4722;49.340;9.800;2024-01-10T14:37:46;23.63;;;10.50;;
9364;SDS011;4722;49.340;9.800;2024-01-10T14:40:12;22.50;;;10.38;;
9364;SDS011;4722;49.340;9.800;2024-01-10T14:42:38;23.35;;;9.98;;
9364;SDS011;4722;49.340;9.800;2024-01-10T14:45:05;20.83;;;9.57;;
9364;SDS011;4722;49.340;9.800;2024-01-10T14:47:31;25.63;;;9.80;;
9364;SDS011;4722;49.340;9.800;2024-01-10T14:49:57;33.30;;;11.95;;
9364;SDS011;4722;49.340;9.800;2024-01-10T14:52:24;32.55;;;12.65;;
9364;SDS011;4722;49.340;9.800;2024-01-10T14:54:50;27.75;;;11.25;;
9364;SDS011;4722;49.340;9.800;2024-01-10T14:57:17;28.33;;;10.88;;
9364;SDS011;4722;49.340;9.800;2024-01-10T14:59:43;31.13;;;10.57;;
9364;SDS011;4722;49.340;9.800;2024-01-10T15:02:09;24.42;;;10.55;;
9364;SDS011;4722;49.340;9.800;2024-01-10T15:04:38;31.90;;;13.45;;
9364;SDS011;4722;49.340;9.800;2024-01-10T15:07:05;22.85;;;9.20;;
9364;SDS011;4722;49.340;9.800;2024-01-10T15:09:31;25.80;;;10.27;;
9364;SDS011;4722;49.340;9.800;2024-01-10T15:11:57;19.63;;;8.80;;
9364;SDS011;4722;49.340;9.800;2024-01-10T15:14:23;26.20;;;9.02;;
9364;SDS011;4722;49.340;9.800;2024-01-10T15:16:49;21.30;;;8.77;;
9364;SDS011;4722;49.340;9.800;2024-01-10T15:19:15;23.65;;;10.50;;
9364;SDS011;4722;49.340;9.800;2024-01-10T15:21:41;35.92;;;12.30;;